sensor_id;sensor_type;location;lat;lon;timestamp;temperature;humidity
44223;DHT22;29895;48.804;9.386;2023-06-26T00:00:40;18.20;99.90
44223;DHT22;29895;48.804;9.386;2023-06-26T00:03:05;18.10;99.90
44223;DHT22;29895;48.804;9.386;2023-06-26T00:05:31;18.00;99.90
44223;DHT22;29895;48.804;9.386;2023-06-26T00:07:58;18.00;99.90
44223;DHT22;29895;48.804;9.386;2023-06-26T00:10:26;18.00;99.90
44223;DHT22;29895;48.804;9.386;2023-06-26T00:12:52;18.00;99.90
44223;DHT22;29895;48.804;9.386;2023-06-26T00:15:17;17.90;99.90
44223;DHT22;29895;48.804;9.386;2023-06-26T00:17:43;17.80;99.90
44223;DHT22;29895;48.804;9.386;2023-06-26T00:20:10;17.80;99.90
44223;DHT22;29895;48.804;9.386;2023-06-26T00:22:36;17.80;99.90
44223;DHT22;29895;48.804;9.386;2023-06-26T00:25:07;17.80;99.90
44223;DHT22;29895;48.804;9.386;2023-06-26T00:27:33;17.70;99.90
44223;DHT22;29895;48.804;9.386;2023-06-26T00:29:58;17.70;99.90
44223;DHT22;29895;48.804;9.386;2023-06-26T00:32:24;17.60;99.90
44223;DHT22;29895;48.804;9.386;2023-06-26T00:34:50;17.50;99.90
44223;DHT22;29895;48.804;9.386;2023-06-26T00:37:16;17.40;99.90
44223;DHT22;29895;48.804;9.386;2023-06-26T00:39:41;17.30;99.90
44223;DHT22;29895;48.804;9.386;2023-06-26T00:42:07;17.30;99.90
44223;DHT22;29895;48.804;9.386;2023-06-26T00:44:33;17.20;99.90
44223;DHT22;29895;48.804;9.386;2023-06-26T00:46:59;17.30;99.90
44223;DHT22;29895;48.804;9.386;2023-06-26T00:49:25;17.20;99.90
44223;DHT22;29895;48.804;9.386;2023-06-26T00:51:51;17.20;99.90
44223;DHT22;29895;48.804;9.386;2023-06-26T00:54:18;17.10;99.90
44223;DHT22;29895;48.804;9.386;2023-06-26T00:56:48;17.10;99.90
44223;DHT22;29895;48.804;9.386;2023-06-26T00:59:14;17.00;99.90
44223;DHT22;29895;48.804;9.386;2023-06-26T01:01:40;17.00;99.90
44223;DHT22;29895;48.804;9.386;2023-06-26T01:04:06;17.00;99.90
44223;DHT22;29895;48.804;9.386;2023-06-26T01:06:32;17.00;99.90
44223;DHT22;29895;48.804;9.386;2023-06-26T01:09:01;17.00;99.90
44223;DHT22;29895;48.804;9.386;2023-06-26T01:11:27;17.00;99.90
44223;DHT22;29895;48.804;9.386;2023-06-26T01:13:54;17.00;99.90
44223;DHT22;29895;48.804;9.386;2023-06-26T01:16:21;17.00;99.90
44223;DHT22;29895;48.804;9.386;2023-06-26T01:18:49;17.00;99.90
44223;DHT22;29895;48.804;9.386;2023-06-26T01:21:15;16.90;99.90
44223;DHT22;29895;48.804;9.386;2023-06-26T01:26:22;16.90;99.90
44223;DHT22;29895;48.804;9.386;2023-06-26T01:28:50;16.80;99.90
44223;DHT22;29895;48.804;9.386;2023-06-26T01:31:17;16.80;99.90
44223;DHT22;29895;48.804;9.386;2023-06-26T01:33:43;16.70;99.90
44223;DHT22;29895;48.804;9.386;2023-06-26T01:36:10;16.70;99.90
44223;DHT22;29895;48.804;9.386;2023-06-26T01:38:36;16.70;99.90
44223;DHT22;29895;48.804;9.386;2023-06-26T01:41:02;16.70;99.90
44223;DHT22;29895;48.804;9.386;2023-06-26T01:46:24;16.70;99.90
44223;DHT22;29895;48.804;9.386;2023-06-26T01:51:32;16.70;99.90
44223;DHT22;29895;48.804;9.386;2023-06-26T01:53:58;16.70;99.90
44223;DHT22;29895;48.804;9.386;2023-06-26T01:56:26;16.60;99.90
44223;DHT22;29895;48.804;9.386;2023-06-26T01:58:54;16.60;99.90
44223;DHT22;29895;48.804;9.386;2023-06-26T02:01:21;16.60;99.90
44223;DHT22;29895;48.804;9.386;2023-06-26T02:03:47;16.60;99.90
44223;DHT22;29895;48.804;9.386;2023-06-26T02:06:13;16.50;99.90
44223;DHT22;29895;48.804;9.386;2023-06-26T02:08:40;16.50;99.90
44223;DHT22;29895;48.804;9.386;2023-06-26T02:11:06;16.40;99.90
44223;DHT22;29895;48.804;9.386;2023-06-26T02:13:31;16.30;99.90
44223;DHT22;29895;48.804;9.386;2023-06-26T02:15:57;16.30;99.90
44223;DHT22;29895;48.804;9.386;2023-06-26T02:18:23;16.20;99.90
44223;DHT22;29895;48.804;9.386;2023-06-26T02:20:49;16.20;99.90
44223;DHT22;29895;48.804;9.386;2023-06-26T02:23:15;16.10;99.90
44223;DHT22;29895;48.804;9.386;2023-06-26T02:25:41;16.10;99.90
44223;DHT22;29895;48.804;9.386;2023-06-26T02:28:06;16.10;99.90
44223;DHT22;29895;48.804;9.386;2023-06-26T02:30:32;16.00;99.90
44223;DHT22;29895;48.804;9.386;2023-06-26T02:32:58;16.00;99.90
44223;DHT22;29895;48.804;9.386;2023-06-26T02:35:23;16.00;99.90
44223;DHT22;29895;48.804;9.386;2023-06-26T02:37:49;16.00;99.90
44223;DHT22;29895;48.804;9.386;2023-06-26T02:40:15;15.90;99.90
44223;DHT22;29895;48.804;9.386;2023-06-26T02:42:41;15.90;99.90
44223;DHT22;29895;48.804;9.386;2023-06-26T02:45:07;15.90;99.90
44223;DHT22;29895;48.804;9.386;2023-06-26T02:47:33;15.90;99.90
44223;DHT22;29895;48.804;9.386;2023-06-26T02:49:58;15.90;99.90
44223;DHT22;29895;48.804;9.386;2023-06-26T02:52:24;15.90;99.90
44223;DHT22;29895;48.804;9.386;2023-06-26T02:54:50;15.90;99.90
44223;DHT22;29895;48.804;9.386;2023-06-26T02:57:15;15.90;99.90
44223;DHT22;29895;48.804;9.386;2023-06-26T02:59:42;15.80;99.90
44223;DHT22;29895;48.804;9.386;2023-06-26T03:02:08;15.80;99.90
44223;DHT22;29895;48.804;9.386;2023-06-26T03:04:34;15.90;99.90
44223;DHT22;29895;48.804;9.386;2023-06-26T03:07:03;15.90;99.90
44223;DHT22;29895;48.804;9.386;2023-06-26T03:09:29;15.80;99.90
44223;DHT22;29895;48.804;9.386;2023-06-26T03:11:54;15.80;99.90
44223;DHT22;29895;48.804;9.386;2023-06-26T03:14:21;15.70;99.90
44223;DHT22;29895;48.804;9.386;2023-06-26T03:16:46;15.90;99.90
44223;DHT22;29895;48.804;9.386;2023-06-26T03:19:12;15.90;99.90
44223;DHT22;29895;48.804;9.386;2023-06-26T03:21:38;15.90;99.90
44223;DHT22;29895;48.804;9.386;2023-06-26T03:24:04;15.80;99.90
44223;DHT22;29895;48.804;9.386;2023-06-26T03:26:29;15.80;99.90
44223;DHT22;29895;48.804;9.386;2023-06-26T03:28:55;15.80;99.90
44223;DHT22;29895;48.804;9.386;2023-06-26T03:31:21;15.80;99.90
44223;DHT22;29895;48.804;9.386;2023-06-26T03:33:47;15.80;99.90
44223;DHT22;29895;48.804;9.386;2023-06-26T03:36:12;15.80;99.90
44223;DHT22;29895;48.804;9.386;2023-06-26T03:38:38;15.80;99.90
44223;DHT22;29895;48.804;9.386;2023-06-26T03:41:03;15.70;99.90
44223;DHT22;29895;48.804;9.386;2023-06-26T03:43:29;15.60;99.90
44223;DHT22;29895;48.804;9.386;2023-06-26T03:45:55;15.60;99.90
44223;DHT22;29895;48.804;9.386;2023-06-26T03:48:21;15.70;99.90
44223;DHT22;29895;48.804;9.386;2023-06-26T03:50:46;15.80;99.90
44223;DHT22;29895;48.804;9.386;2023-06-26T03:53:12;15.90;99.90
44223;DHT22;29895;48.804;9.386;2023-06-26T03:55:38;16.10;99.90
44223;DHT22;29895;48.804;9.386;2023-06-26T03:58:04;16.20;99.90
44223;DHT22;29895;48.804;9.386;2023-06-26T04:00:30;16.30;99.90
44223;DHT22;29895;48.804;9.386;2023-06-26T04:02:56;16.50;99.90
44223;DHT22;29895;48.804;9.386;2023-06-26T04:05:22;16.70;99.90
44223;DHT22;29895;48.804;9.386;2023-06-26T04:07:52;17.00;99.90
44223;DHT22;29895;48.804;9.386;2023-06-26T04:10:18;17.20;99.90
44223;DHT22;29895;48.804;9.386;2023-06-26T04:12:44;17.30;99.90
44223;DHT22;29895;48.804;9.386;2023-06-26T04:15:09;17.50;99.90
44223;DHT22;29895;48.804;9.386;2023-06-26T04:17:35;17.80;99.90
44223;DHT22;29895;48.804;9.386;2023-06-26T04:20:01;17.90;99.90
44223;DHT22;29895;48.804;9.386;2023-06-26T04:22:30;18.00;99.90
44223;DHT22;29895;48.804;9.386;2023-06-26T04:24:56;18.20;99.90
44223;DHT22;29895;48.804;9.386;2023-06-26T04:27:21;18.30;99.90
44223;DHT22;29895;48.804;9.386;2023-06-26T04:29:47;18.60;99.90
44223;DHT22;29895;48.804;9.386;2023-06-26T04:32:12;18.90;99.90
44223;DHT22;29895;48.804;9.386;2023-06-26T04:34:38;18.90;99.90
44223;DHT22;29895;48.804;9.386;2023-06-26T04:37:06;19.00;99.90
44223;DHT22;29895;48.804;9.386;2023-06-26T04:39:32;19.40;99.90
44223;DHT22;29895;48.804;9.386;2023-06-26T04:41:58;19.70;99.90
44223;DHT22;29895;48.804;9.386;2023-06-26T04:44:24;20.00;99.90
44223;DHT22;29895;48.804;9.386;2023-06-26T04:46:49;20.30;99.90
44223;DHT22;29895;48.804;9.386;2023-06-26T04:49:17;20.30;99.90
44223;DHT22;29895;48.804;9.386;2023-06-26T04:51:43;20.50;99.90
44223;DHT22;29895;48.804;9.386;2023-06-26T04:54:10;20.60;99.90
44223;DHT22;29895;48.804;9.386;2023-06-26T04:56:36;20.80;99.90
44223;DHT22;29895;48.804;9.386;2023-06-26T04:59:02;20.80;99.90
44223;DHT22;29895;48.804;9.386;2023-06-26T05:01:29;21.00;99.90
44223;DHT22;29895;48.804;9.386;2023-06-26T05:04:01;21.10;99.90
44223;DHT22;29895;48.804;9.386;2023-06-26T05:06:27;21.30;99.90
44223;DHT22;29895;48.804;9.386;2023-06-26T05:08:53;21.40;99.90
44223;DHT22;29895;48.804;9.386;2023-06-26T05:11:19;21.70;99.90
44223;DHT22;29895;48.804;9.386;2023-06-26T05:13:44;21.80;99.90
44223;DHT22;29895;48.804;9.386;2023-06-26T05:16:10;22.10;99.90
44223;DHT22;29895;48.804;9.386;2023-06-26T05:18:36;22.20;99.90
44223;DHT22;29895;48.804;9.386;2023-06-26T05:21:02;22.40;99.90
44223;DHT22;29895;48.804;9.386;2023-06-26T05:23:31;22.50;99.90
44223;DHT22;29895;48.804;9.386;2023-06-26T05:25:57;22.70;99.90
44223;DHT22;29895;48.804;9.386;2023-06-26T05:28:24;22.80;99.90
44223;DHT22;29895;48.804;9.386;2023-06-26T05:30:51;23.00;99.90
44223;DHT22;29895;48.804;9.386;2023-06-26T05:33:18;23.10;99.90
44223;DHT22;29895;48.804;9.386;2023-06-26T05:35:45;23.20;99.90
44223;DHT22;29895;48.804;9.386;2023-06-26T05:38:12;23.50;99.90
44223;DHT22;29895;48.804;9.386;2023-06-26T05:40:39;23.50;99.90
44223;DHT22;29895;48.804;9.386;2023-06-26T05:43:06;23.70;99.90
44223;DHT22;29895;48.804;9.386;2023-06-26T05:45:32;23.50;99.90
44223;DHT22;29895;48.804;9.386;2023-06-26T05:47:58;23.50;99.90
44223;DHT22;29895;48.804;9.386;2023-06-26T05:50:25;23.90;99.90
44223;DHT22;29895;48.804;9.386;2023-06-26T05:52:51;24.10;99.90
44223;DHT22;29895;48.804;9.386;2023-06-26T05:55:17;24.30;99.50
44223;DHT22;29895;48.804;9.386;2023-06-26T05:57:43;24.40;99.40
44223;DHT22;29895;48.804;9.386;2023-06-26T06:00:11;24.70;99.20
44223;DHT22;29895;48.804;9.386;2023-06-26T06:02:38;24.80;98.80
44223;DHT22;29895;48.804;9.386;2023-06-26T06:05:04;25.20;98.10
44223;DHT22;29895;48.804;9.386;2023-06-26T06:07:32;25.30;98.10
44223;DHT22;29895;48.804;9.386;2023-06-26T06:09:58;25.50;97.80
44223;DHT22;29895;48.804;9.386;2023-06-26T06:12:24;25.60;97.70
44223;DHT22;29895;48.804;9.386;2023-06-26T06:14:49;25.70;97.60
44223;DHT22;29895;48.804;9.386;2023-06-26T06:17:15;25.90;97.40
44223;DHT22;29895;48.804;9.386;2023-06-26T06:19:41;26.00;97.10
44223;DHT22;29895;48.804;9.386;2023-06-26T06:22:06;26.10;97.00
44223;DHT22;29895;48.804;9.386;2023-06-26T06:24:32;26.10;96.80
44223;DHT22;29895;48.804;9.386;2023-06-26T06:26:57;25.70;97.10
44223;DHT22;29895;48.804;9.386;2023-06-26T06:29:23;25.60;97.40
44223;DHT22;29895;48.804;9.386;2023-06-26T06:31:49;25.90;97.10
44223;DHT22;29895;48.804;9.386;2023-06-26T06:34:14;26.10;97.10
44223;DHT22;29895;48.804;9.386;2023-06-26T06:36:40;26.60;96.40
44223;DHT22;29895;48.804;9.386;2023-06-26T06:39:07;27.00;95.80
44223;DHT22;29895;48.804;9.386;2023-06-26T06:41:32;27.30;95.40
44223;DHT22;29895;48.804;9.386;2023-06-26T06:43:58;27.10;95.20
44223;DHT22;29895;48.804;9.386;2023-06-26T06:46:24;27.10;95.40
44223;DHT22;29895;48.804;9.386;2023-06-26T06:48:52;27.20;95.20
44223;DHT22;29895;48.804;9.386;2023-06-26T06:51:18;27.20;94.80
44223;DHT22;29895;48.804;9.386;2023-06-26T06:53:44;27.10;95.10
44223;DHT22;29895;48.804;9.386;2023-06-26T06:56:09;27.70;94.70
44223;DHT22;29895;48.804;9.386;2023-06-26T06:58:35;28.20;94.40
44223;DHT22;29895;48.804;9.386;2023-06-26T07:01:01;28.50;93.80
44223;DHT22;29895;48.804;9.386;2023-06-26T07:03:30;28.70;93.00
44223;DHT22;29895;48.804;9.386;2023-06-26T07:05:56;29.30;92.80
44223;DHT22;29895;48.804;9.386;2023-06-26T07:08:22;29.80;91.70
44223;DHT22;29895;48.804;9.386;2023-06-26T07:10:47;30.40;91.00
44223;DHT22;29895;48.804;9.386;2023-06-26T07:13:13;31.00;90.10
44223;DHT22;29895;48.804;9.386;2023-06-26T07:15:38;31.50;88.30
44223;DHT22;29895;48.804;9.386;2023-06-26T07:18:04;31.90;86.80
44223;DHT22;29895;48.804;9.386;2023-06-26T07:20:30;32.10;85.50
44223;DHT22;29895;48.804;9.386;2023-06-26T07:22:56;32.30;84.50
44223;DHT22;29895;48.804;9.386;2023-06-26T07:25:21;32.50;83.50
44223;DHT22;29895;48.804;9.386;2023-06-26T07:27:47;32.50;83.20
44223;DHT22;29895;48.804;9.386;2023-06-26T07:30:13;32.60;83.30
44223;DHT22;29895;48.804;9.386;2023-06-26T07:32:39;33.00;82.90
44223;DHT22;29895;48.804;9.386;2023-06-26T07:35:06;33.30;81.60
44223;DHT22;29895;48.804;9.386;2023-06-26T07:37:32;33.00;81.80
44223;DHT22;29895;48.804;9.386;2023-06-26T07:39:57;33.20;80.50
44223;DHT22;29895;48.804;9.386;2023-06-26T07:42:23;33.10;80.40
44223;DHT22;29895;48.804;9.386;2023-06-26T07:44:49;33.10;81.30
44223;DHT22;29895;48.804;9.386;2023-06-26T07:47:15;32.80;81.20
44223;DHT22;29895;48.804;9.386;2023-06-26T07:49:40;32.90;80.60
44223;DHT22;29895;48.804;9.386;2023-06-26T07:52:06;33.20;80.00
44223;DHT22;29895;48.804;9.386;2023-06-26T07:54:32;33.60;80.20
44223;DHT22;29895;48.804;9.386;2023-06-26T07:57:00;33.60;79.00
44223;DHT22;29895;48.804;9.386;2023-06-26T07:59:27;32.40;80.90
44223;DHT22;29895;48.804;9.386;2023-06-26T08:01:54;31.80;82.20
44223;DHT22;29895;48.804;9.386;2023-06-26T08:04:22;31.00;82.80
44223;DHT22;29895;48.804;9.386;2023-06-26T08:06:54;30.60;83.30
44223;DHT22;29895;48.804;9.386;2023-06-26T08:09:21;30.60;83.70
44223;DHT22;29895;48.804;9.386;2023-06-26T08:11:47;31.30;82.60
44223;DHT22;29895;48.804;9.386;2023-06-26T08:14:13;31.90;81.90
44223;DHT22;29895;48.804;9.386;2023-06-26T08:16:43;31.90;80.90
44223;DHT22;29895;48.804;9.386;2023-06-26T08:19:10;31.70;81.30
44223;DHT22;29895;48.804;9.386;2023-06-26T08:21:36;31.70;80.70
44223;DHT22;29895;48.804;9.386;2023-06-26T08:24:02;31.90;80.70
44223;DHT22;29895;48.804;9.386;2023-06-26T08:26:28;31.80;80.70
44223;DHT22;29895;48.804;9.386;2023-06-26T08:28:54;31.80;80.40
44223;DHT22;29895;48.804;9.386;2023-06-26T08:31:20;32.10;80.40
44223;DHT22;29895;48.804;9.386;2023-06-26T08:33:46;31.40;80.50
44223;DHT22;29895;48.804;9.386;2023-06-26T08:36:12;31.20;81.00
44223;DHT22;29895;48.804;9.386;2023-06-26T08:38:38;31.30;80.70
44223;DHT22;29895;48.804;9.386;2023-06-26T08:41:06;31.20;81.50
44223;DHT22;29895;48.804;9.386;2023-06-26T08:43:32;31.10;80.90
44223;DHT22;29895;48.804;9.386;2023-06-26T08:45:58;31.10;81.90
44223;DHT22;29895;48.804;9.386;2023-06-26T08:48:24;31.80;81.50
44223;DHT22;29895;48.804;9.386;2023-06-26T08:50:52;32.40;80.00
44223;DHT22;29895;48.804;9.386;2023-06-26T08:53:29;33.00;78.50
44223;DHT22;29895;48.804;9.386;2023-06-26T08:55:59;33.00;78.40
44223;DHT22;29895;48.804;9.386;2023-06-26T08:58:25;33.00;78.10
44223;DHT22;29895;48.804;9.386;2023-06-26T09:00:51;32.40;78.50
44223;DHT22;29895;48.804;9.386;2023-06-26T09:03:17;32.00;79.30
44223;DHT22;29895;48.804;9.386;2023-06-26T09:05:43;31.60;79.20
44223;DHT22;29895;48.804;9.386;2023-06-26T09:08:09;31.30;79.60
44223;DHT22;29895;48.804;9.386;2023-06-26T09:10:35;31.40;79.70
44223;DHT22;29895;48.804;9.386;2023-06-26T09:13:01;31.30;79.70
44223;DHT22;29895;48.804;9.386;2023-06-26T09:15:36;31.30;79.60
44223;DHT22;29895;48.804;9.386;2023-06-26T09:18:04;31.20;79.40
44223;DHT22;29895;48.804;9.386;2023-06-26T09:20:31;31.80;78.70
44223;DHT22;29895;48.804;9.386;2023-06-26T09:22:59;31.80;78.50
44223;DHT22;29895;48.804;9.386;2023-06-26T09:25:25;32.00;78.80
44223;DHT22;29895;48.804;9.386;2023-06-26T09:27:52;32.40;78.10
44223;DHT22;29895;48.804;9.386;2023-06-26T09:30:18;32.30;77.90
44223;DHT22;29895;48.804;9.386;2023-06-26T09:32:44;32.50;77.90
44223;DHT22;29895;48.804;9.386;2023-06-26T09:35:10;32.40;77.30
44223;DHT22;29895;48.804;9.386;2023-06-26T09:37:36;32.00;77.80
44223;DHT22;29895;48.804;9.386;2023-06-26T09:40:03;31.70;77.80
44223;DHT22;29895;48.804;9.386;2023-06-26T09:42:29;31.70;78.40
44223;DHT22;29895;48.804;9.386;2023-06-26T09:44:55;32.00;78.00
44223;DHT22;29895;48.804;9.386;2023-06-26T09:47:21;32.00;78.10
44223;DHT22;29895;48.804;9.386;2023-06-26T09:49:47;32.30;77.60
44223;DHT22;29895;48.804;9.386;2023-06-26T09:52:16;32.30;77.50
44223;DHT22;29895;48.804;9.386;2023-06-26T09:54:45;31.90;77.80
44223;DHT22;29895;48.804;9.386;2023-06-26T09:57:13;31.90;78.30
44223;DHT22;29895;48.804;9.386;2023-06-26T09:59:39;32.40;78.10
44223;DHT22;29895;48.804;9.386;2023-06-26T10:02:06;32.60;77.50
44223;DHT22;29895;48.804;9.386;2023-06-26T10:04:34;33.00;77.00
44223;DHT22;29895;48.804;9.386;2023-06-26T10:07:02;33.20;76.80
44223;DHT22;29895;48.804;9.386;2023-06-26T10:09:29;33.10;77.00
44223;DHT22;29895;48.804;9.386;2023-06-26T10:12:03;33.30;77.00
44223;DHT22;29895;48.804;9.386;2023-06-26T10:14:36;32.80;77.70
44223;DHT22;29895;48.804;9.386;2023-06-26T10:17:06;32.30;77.80
44223;DHT22;29895;48.804;9.386;2023-06-26T10:19:33;31.70;79.20
44223;DHT22;29895;48.804;9.386;2023-06-26T10:22:02;31.50;79.20
44223;DHT22;29895;48.804;9.386;2023-06-26T10:24:30;31.60;78.70
44223;DHT22;29895;48.804;9.386;2023-06-26T10:27:08;31.80;77.90
44223;DHT22;29895;48.804;9.386;2023-06-26T10:29:36;31.50;79.00
44223;DHT22;29895;48.804;9.386;2023-06-26T10:32:03;30.80;79.80
44223;DHT22;29895;48.804;9.386;2023-06-26T10:34:30;30.80;80.40
44223;DHT22;29895;48.804;9.386;2023-06-26T10:37:00;31.30;80.30
44223;DHT22;29895;48.804;9.386;2023-06-26T10:39:50;31.20;79.70
44223;DHT22;29895;48.804;9.386;2023-06-26T10:42:19;31.20;80.40
44223;DHT22;29895;48.804;9.386;2023-06-26T10:44:47;31.50;80.70
44223;DHT22;29895;48.804;9.386;2023-06-26T10:47:32;31.80;80.40
44223;DHT22;29895;48.804;9.386;2023-06-26T10:50:27;32.10;79.60
44223;DHT22;29895;48.804;9.386;2023-06-26T10:53:21;32.50;80.10
44223;DHT22;29895;48.804;9.386;2023-06-26T10:55:55;32.30;79.20
44223;DHT22;29895;48.804;9.386;2023-06-26T11:03:39;31.70;80.40
44223;DHT22;29895;48.804;9.386;2023-06-26T11:06:18;31.60;80.70
44223;DHT22;29895;48.804;9.386;2023-06-26T11:08:51;31.60;81.20
44223;DHT22;29895;48.804;9.386;2023-06-26T11:11:19;31.50;81.20
44223;DHT22;29895;48.804;9.386;2023-06-26T11:13:46;31.10;81.40
44223;DHT22;29895;48.804;9.386;2023-06-26T11:16:13;31.00;81.60
44223;DHT22;29895;48.804;9.386;2023-06-26T11:18:40;31.10;81.30
44223;DHT22;29895;48.804;9.386;2023-06-26T11:21:06;31.10;81.30
44223;DHT22;29895;48.804;9.386;2023-06-26T11:23:33;31.10;81.50
44223;DHT22;29895;48.804;9.386;2023-06-26T11:26:19;31.80;80.20
44223;DHT22;29895;48.804;9.386;2023-06-26T11:28:54;32.20;79.20
44223;DHT22;29895;48.804;9.386;2023-06-26T11:31:31;32.50;79.60
44223;DHT22;29895;48.804;9.386;2023-06-26T11:34:01;32.70;80.20
44223;DHT22;29895;48.804;9.386;2023-06-26T11:36:28;32.80;79.90
44223;DHT22;29895;48.804;9.386;2023-06-26T11:38:59;32.70;79.50
44223;DHT22;29895;48.804;9.386;2023-06-26T11:41:30;32.20;80.40
44223;DHT22;29895;48.804;9.386;2023-06-26T11:44:09;31.70;81.90
44223;DHT22;29895;48.804;9.386;2023-06-26T11:46:36;32.20;81.60
44223;DHT22;29895;48.804;9.386;2023-06-26T11:49:08;31.70;82.20
44223;DHT22;29895;48.804;9.386;2023-06-26T11:51:34;31.70;82.60
44223;DHT22;29895;48.804;9.386;2023-06-26T11:54:02;32.00;81.90
44223;DHT22;29895;48.804;9.386;2023-06-26T11:56:28;32.40;81.90
44223;DHT22;29895;48.804;9.386;2023-06-26T12:01:24;33.20;80.90
44223;DHT22;29895;48.804;9.386;2023-06-26T12:03:50;32.90;80.80
44223;DHT22;29895;48.804;9.386;2023-06-26T12:06:17;32.60;81.70
44223;DHT22;29895;48.804;9.386;2023-06-26T12:08:43;32.50;82.10
44223;DHT22;29895;48.804;9.386;2023-06-26T12:11:09;32.80;82.80
44223;DHT22;29895;48.804;9.386;2023-06-26T12:13:35;33.40;82.20
44223;DHT22;29895;48.804;9.386;2023-06-26T12:16:01;32.50;82.70
44223;DHT22;29895;48.804;9.386;2023-06-26T12:18:34;31.90;84.20
44223;DHT22;29895;48.804;9.386;2023-06-26T12:21:00;32.10;83.70
44223;DHT22;29895;48.804;9.386;2023-06-26T12:23:39;32.20;84.10
44223;DHT22;29895;48.804;9.386;2023-06-26T12:26:18;31.90;85.30
44223;DHT22;29895;48.804;9.386;2023-06-26T12:28:44;32.40;84.20
44223;DHT22;29895;48.804;9.386;2023-06-26T12:31:15;32.90;83.50
44223;DHT22;29895;48.804;9.386;2023-06-26T12:33:43;33.00;83.30
44223;DHT22;29895;48.804;9.386;2023-06-26T12:36:13;33.20;83.60
44223;DHT22;29895;48.804;9.386;2023-06-26T12:38:39;33.20;83.40
44223;DHT22;29895;48.804;9.386;2023-06-26T12:41:05;33.00;83.30
44223;DHT22;29895;48.804;9.386;2023-06-26T12:43:38;33.10;82.80
44223;DHT22;29895;48.804;9.386;2023-06-26T12:46:05;32.90;83.20
44223;DHT22;29895;48.804;9.386;2023-06-26T12:48:57;32.20;84.20
44223;DHT22;29895;48.804;9.386;2023-06-26T12:51:23;31.60;85.50
44223;DHT22;29895;48.804;9.386;2023-06-26T12:53:52;31.90;85.10
44223;DHT22;29895;48.804;9.386;2023-06-26T12:56:17;32.50;84.20
44223;DHT22;29895;48.804;9.386;2023-06-26T12:58:43;33.00;83.30
44223;DHT22;29895;48.804;9.386;2023-06-26T13:01:09;33.30;82.60
44223;DHT22;29895;48.804;9.386;2023-06-26T13:03:40;33.20;82.60
44223;DHT22;29895;48.804;9.386;2023-06-26T13:06:06;33.10;83.00
44223;DHT22;29895;48.804;9.386;2023-06-26T13:08:33;32.90;82.80
44223;DHT22;29895;48.804;9.386;2023-06-26T13:10:59;32.50;83.70
44223;DHT22;29895;48.804;9.386;2023-06-26T13:13:25;32.10;84.60
44223;DHT22;29895;48.804;9.386;2023-06-26T13:15:51;32.20;84.20
44223;DHT22;29895;48.804;9.386;2023-06-26T13:18:17;32.40;84.00
44223;DHT22;29895;48.804;9.386;2023-06-26T13:20:42;32.40;83.60
44223;DHT22;29895;48.804;9.386;2023-06-26T13:23:08;32.10;84.00
44223;DHT22;29895;48.804;9.386;2023-06-26T13:25:34;32.10;84.40
44223;DHT22;29895;48.804;9.386;2023-06-26T13:27:59;32.10;83.60
44223;DHT22;29895;48.804;9.386;2023-06-26T13:30:25;32.10;83.60
44223;DHT22;29895;48.804;9.386;2023-06-26T13:32:51;31.90;83.80
44223;DHT22;29895;48.804;9.386;2023-06-26T13:35:16;31.80;83.90
44223;DHT22;29895;48.804;9.386;2023-06-26T13:37:42;31.60;84.10
44223;DHT22;29895;48.804;9.386;2023-06-26T13:40:08;31.90;83.30
44223;DHT22;29895;48.804;9.386;2023-06-26T13:42:35;32.70;81.70
44223;DHT22;29895;48.804;9.386;2023-06-26T13:45:02;32.90;80.90
44223;DHT22;29895;48.804;9.386;2023-06-26T13:47:29;32.90;80.90
44223;DHT22;29895;48.804;9.386;2023-06-26T13:49:54;32.70;81.10
44223;DHT22;29895;48.804;9.386;2023-06-26T13:52:20;32.80;80.60
44223;DHT22;29895;48.804;9.386;2023-06-26T13:54:46;32.60;80.80
44223;DHT22;29895;48.804;9.386;2023-06-26T13:57:11;32.50;80.20
44223;DHT22;29895;48.804;9.386;2023-06-26T13:59:38;32.30;79.70
44223;DHT22;29895;48.804;9.386;2023-06-26T14:02:05;32.10;79.40
44223;DHT22;29895;48.804;9.386;2023-06-26T14:04:32;32.50;78.90
44223;DHT22;29895;48.804;9.386;2023-06-26T14:06:58;32.50;79.20
44223;DHT22;29895;48.804;9.386;2023-06-26T14:09:24;32.70;78.80
44223;DHT22;29895;48.804;9.386;2023-06-26T14:11:49;32.80;78.20
44223;DHT22;29895;48.804;9.386;2023-06-26T14:14:15;33.40;77.20
44223;DHT22;29895;48.804;9.386;2023-06-26T14:16:42;33.80;76.40
44223;DHT22;29895;48.804;9.386;2023-06-26T14:19:08;33.80;75.60
44223;DHT22;29895;48.804;9.386;2023-06-26T14:21:39;33.80;74.80
44223;DHT22;29895;48.804;9.386;2023-06-26T14:24:06;34.10;74.30
44223;DHT22;29895;48.804;9.386;2023-06-26T14:26:31;34.40;73.90
44223;DHT22;29895;48.804;9.386;2023-06-26T14:28:59;34.20;73.90
44223;DHT22;29895;48.804;9.386;2023-06-26T14:31:25;33.90;74.20
44223;DHT22;29895;48.804;9.386;2023-06-26T14:33:50;34.10;74.20
44223;DHT22;29895;48.804;9.386;2023-06-26T14:36:16;34.20;74.30
44223;DHT22;29895;48.804;9.386;2023-06-26T14:38:42;33.90;73.80
44223;DHT22;29895;48.804;9.386;2023-06-26T14:41:07;33.50;74.00
44223;DHT22;29895;48.804;9.386;2023-06-26T14:43:34;33.10;74.10
44223;DHT22;29895;48.804;9.386;2023-06-26T14:45:59;33.20;74.40
44223;DHT22;29895;48.804;9.386;2023-06-26T14:48:25;33.10;73.50
44223;DHT22;29895;48.804;9.386;2023-06-26T14:50:50;33.00;74.00
44223;DHT22;29895;48.804;9.386;2023-06-26T14:53:17;33.30;73.60
44223;DHT22;29895;48.804;9.386;2023-06-26T14:55:42;33.40;72.90
44223;DHT22;29895;48.804;9.386;2023-06-26T14:58:08;33.70;73.30
44223;DHT22;29895;48.804;9.386;2023-06-26T15:00:34;33.90;72.30
44223;DHT22;29895;48.804;9.386;2023-06-26T15:03:00;33.00;72.60
44223;DHT22;29895;48.804;9.386;2023-06-26T15:05:26;33.00;73.20
44223;DHT22;29895;48.804;9.386;2023-06-26T15:07:52;32.60;73.80
44223;DHT22;29895;48.804;9.386;2023-06-26T15:10:17;32.40;74.10
44223;DHT22;29895;48.804;9.386;2023-06-26T15:12:43;32.00;74.60
44223;DHT22;29895;48.804;9.386;2023-06-26T15:15:09;31.80;74.80
44223;DHT22;29895;48.804;9.386;2023-06-26T15:17:35;31.40;75.60
44223;DHT22;29895;48.804;9.386;2023-06-26T15:20:01;31.20;76.00
44223;DHT22;29895;48.804;9.386;2023-06-26T15:22:27;30.90;76.70
44223;DHT22;29895;48.804;9.386;2023-06-26T15:24:53;31.40;76.30
44223;DHT22;29895;48.804;9.386;2023-06-26T15:27:19;31.50;76.50
44223;DHT22;29895;48.804;9.386;2023-06-26T15:29:44;31.30;76.50
44223;DHT22;29895;48.804;9.386;2023-06-26T15:32:10;30.80;76.70
44223;DHT22;29895;48.804;9.386;2023-06-26T15:34:36;30.50;77.00
44223;DHT22;29895;48.804;9.386;2023-06-26T15:37:02;30.20;77.30
44223;DHT22;29895;48.804;9.386;2023-06-26T15:39:27;29.90;77.70
44223;DHT22;29895;48.804;9.386;2023-06-26T15:41:53;29.60;78.30
44223;DHT22;29895;48.804;9.386;2023-06-26T15:44:19;29.50;78.60